Time;durP1;ratioP1;P1;durP2;ratioP2;P2;SDS_P1;SDS_P2;PMS_P1;PMS_P2;Temp;Humidity;BMP_temperature;BMP_pressure;BME280_temperature;BME280_humidity;BME280_pressure;Samples;Min_cycle;Max_cycle;Signal;HPM_P1;HPM_P2
2023/10/23 00:02:18;;;;;;;0.57;0.57;;;;;;;;;;4974758;28;20023;-22
2023/10/23 00:04:44;;;;;;;0.85;0.85;;;;;;;;;;4975081;28;20335;-22
2023/10/23 00:07:11;;;;;;;0.68;0.68;;;;;;;;;;4975024;28;20033;-22
2023/10/23 00:09:37;;;;;;;0.60;0.60;;;;;;;;;;4974709;28;20022;-24
2023/10/23 00:12:03;;;;;;;0.60;0.60;;;;;;;;;;4974916;28;20023;-23
2023/10/23 00:14:29;;;;;;;0.98;0.80;;;;;;;;;;4974673;28;20103;-23
2023/10/23 00:16:55;;;;;;;0.85;0.85;;;;;;;;;;4974872;28;20039;-25
2023/10/23 00:19:22;;;;;;;0.50;0.50;;;;;;;;;;4974467;28;20030;-23
2023/10/23 00:21:48;;;;;;;0.80;0.80;;;;;;;;;;4974400;28;20446;-22
2023/10/23 00:24:14;;;;;;;0.63;0.63;;;;;;;;;;4974526;28;20026;-22
2023/10/23 00:26:40;;;;;;;0.70;0.70;;;;;;;;;;4974473;28;20023;-22
2023/10/23 00:29:06;;;;;;;0.65;0.65;;;;;;;;;;4974954;28;20051;-22
2023/10/23 00:31:33;;;;;;;0.95;0.60;;;;;;;;;;4974371;28;20031;-22
2023/10/23 00:33:59;;;;;;;0.65;0.60;;;;;;;;;;4974194;28;20378;-23
2023/10/23 00:36:25;;;;;;;0.50;0.50;;;;;;;;;;4974282;28;20045;-22
2023/10/23 00:38:51;;;;;;;0.68;0.68;;;;;;;;;;4974257;28;20031;-22
2023/10/23 00:41:17;;;;;;;0.57;0.57;;;;;;;;;;4974272;28;20106;-24
2023/10/23 00:43:43;;;;;;;0.50;0.50;;;;;;;;;;4974146;28;20022;-23
2023/10/23 00:46:16;;;;;;;0.82;0.82;;;;;;;;;;4974424;28;20080;-23
2023/10/23 00:48:43;;;;;;;0.55;0.55;;;;;;;;;;4974375;28;20038;-23
2023/10/23 00:51:12;;;;;;;0.60;0.60;;;;;;;;;;4974376;28;20125;-22
2023/10/23 00:53:39;;;;;;;0.63;0.60;;;;;;;;;;4974024;28;20043;-24
2023/10/23 00:56:07;;;;;;;0.70;0.65;;;;;;;;;;4974001;28;20509;-22
2023/10/23 00:58:33;;;;;;;0.60;0.60;;;;;;;;;;4973701;28;20104;-22
2023/10/23 01:01:00;;;;;;;0.93;0.70;;;;;;;;;;4973896;28;20098;-22
2023/10/23 01:03:26;;;;;;;0.50;0.50;;;;;;;;;;4973857;28;20027;-22
2023/10/23 01:05:52;;;;;;;0.70;0.70;;;;;;;;;;4973882;28;20030;-22
2023/10/23 01:08:18;;;;;;;0.50;0.50;;;;;;;;;;4973824;28;20098;-22
2023/10/23 01:10:45;;;;;;;0.40;0.40;;;;;;;;;;4973818;28;20027;-22
2023/10/23 01:13:11;;;;;;;0.60;0.60;;;;;;;;;;4973966;28;20351;-22
2023/10/23 01:15:37;;;;;;;0.68;0.68;;;;;;;;;;4973731;28;20564;-22
2023/10/23 01:18:04;;;;;;;0.40;0.40;;;;;;;;;;4973998;28;20366;-22
2023/10/23 01:20:31;;;;;;;0.75;0.75;;;;;;;;;;4973696;28;20099;-22
2023/10/23 01:22:57;;;;;;;1.05;0.70;;;;;;;;;;4973556;28;20042;-23
2023/10/23 01:25:24;;;;;;;0.60;0.60;;;;;;;;;;4973633;28;20026;-24
2023/10/23 01:27:50;;;;;;;0.63;0.63;;;;;;;;;;4974099;28;20029;-22
2023/10/23 01:30:16;;;;;;;0.50;0.50;;;;;;;;;;4973538;28;20038;-23
2023/10/23 01:32:42;;;;;;;0.68;0.68;;;;;;;;;;4973432;28;20548;-22
2023/10/23 01:35:08;;;;;;;0.77;0.77;;;;;;;;;;4973489;28;20110;-24
2023/10/23 01:37:34;;;;;;;0.40;0.40;;;;;;;;;;4973480;28;20088;-22
2023/10/23 01:40:01;;;;;;;0.50;0.50;;;;;;;;;;4973573;28;20038;-22
2023/10/23 01:42:30;;;;;;;0.60;0.60;;;;;;;;;;4973557;28;20042;-22
2023/10/23 01:44:56;;;;;;;0.52;0.52;;;;;;;;;;4972636;28;20023;-22
2023/10/23 01:47:22;;;;;;;0.50;0.50;;;;;;;;;;4973317;28;20023;-22
2023/10/23 01:49:49;;;;;;;0.60;0.60;;;;;;;;;;4973261;28;20095;-25
2023/10/23 01:52:15;;;;;;;0.82;0.82;;;;;;;;;;4973904;28;20027;-22
2023/10/23 01:54:41;;;;;;;0.55;0.55;;;;;;;;;;4973449;28;20030;-22
2023/10/23 01:57:07;;;;;;;0.50;0.50;;;;;;;;;;4972974;28;20033;-22
2023/10/23 01:59:33;;;;;;;0.60;0.60;;;;;;;;;;4973808;28;20046;-22
2023/10/23 02:01:59;;;;;;;0.45;0.45;;;;;;;;;;4973044;28;20031;-22
2023/10/23 02:04:27;;;;;;;0.77;0.68;;;;;;;;;;4973328;28;20050;-22
2023/10/23 02:06:53;;;;;;;0.60;0.60;;;;;;;;;;4973341;28;20041;-22
2023/10/23 02:09:19;;;;;;;0.50;0.50;;;;;;;;;;4973005;28;20094;-22
2023/10/23 02:11:46;;;;;;;0.65;0.57;;;;;;;;;;4972028;28;20061;-22
2023/10/23 02:14:12;;;;;;;0.80;0.80;;;;;;;;;;4971999;28;20037;-23
2023/10/23 02:16:38;;;;;;;0.60;0.60;;;;;;;;;;4973163;28;20023;-22
2023/10/23 02:19:04;;;;;;;0.60;0.60;;;;;;;;;;4973070;28;20397;-22
2023/10/23 02:21:30;;;;;;;0.63;0.63;;;;;;;;;;4973110;28;20058;-23
2023/10/23 02:23:58;;;;;;;0.50;0.50;;;;;;;;;;4972800;28;20323;-22
2023/10/23 02:26:25;;;;;;;0.68;0.68;;;;;;;;;;4972791;28;20465;-22
2023/10/23 02:28:51;;;;;;;0.57;0.57;;;;;;;;;;4971847;28;20027;-22
2023/10/23 02:31:17;;;;;;;0.50;0.50;;;;;;;;;;4972774;28;20568;-22
2023/10/23 02:33:44;;;;;;;0.50;0.50;;;;;;;;;;4972671;28;20370;-22
2023/10/23 02:36:10;;;;;;;0.98;0.98;;;;;;;;;;4972613;28;20023;-23
2023/10/23 02:38:36;;;;;;;0.73;0.52;;;;;;;;;;4972847;28;20037;-22
2023/10/23 02:41:02;;;;;;;0.60;0.60;;;;;;;;;;4972873;28;20023;-23
2023/10/23 02:43:28;;;;;;;0.65;0.65;;;;;;;;;;4972574;28;20469;-23
2023/10/23 02:45:54;;;;;;;0.40;0.40;;;;;;;;;;4972606;28;20026;-22
2023/10/23 02:48:20;;;;;;;0.63;0.63;;;;;;;;;;4972506;28;20023;-24
2023/10/23 02:50:53;;;;;;;0.40;0.40;;;;;;;;;;4973026;28;20346;-22
2023/10/23 02:53:19;;;;;;;0.70;0.70;;;;;;;;;;4972429;28;20019;-22
2023/10/23 02:55:45;;;;;;;0.50;0.50;;;;;;;;;;4972450;28;20075;-22
2023/10/23 02:58:11;;;;;;;0.50;0.50;;;;;;;;;;4974425;28;20481;-23
2023/10/23 03:00:38;;;;;;;0.70;0.70;;;;;;;;;;4975995;28;20106;-22
2023/10/23 03:03:05;;;;;;;0.50;0.50;;;;;;;;;;4974742;28;20027;-22
2023/10/23 03:05:31;;;;;;;0.50;0.50;;;;;;;;;;4975729;28;20498;-22
2023/10/23 03:07:57;;;;;;;0.50;0.50;;;;;;;;;;4975647;28;20033;-22
2023/10/23 03:10:23;;;;;;;0.60;0.60;;;;;;;;;;4975673;28;20027;-23
2023/10/23 03:12:49;;;;;;;0.60;0.57;;;;;;;;;;4975453;28;20065;-26
2023/10/23 03:15:16;;;;;;;0.60;0.60;;;;;;;;;;4975849;28;20038;-22
2023/10/23 03:17:42;;;;;;;0.55;0.55;;;;;;;;;;4975785;28;20035;-24
2023/10/23 03:20:09;;;;;;;0.47;0.47;;;;;;;;;;4975393;28;20023;-29
2023/10/23 03:22:35;;;;;;;0.73;0.73;;;;;;;;;;4975364;28;20113;-25
2023/10/23 03:25:01;;;;;;;0.40;0.40;;;;;;;;;;4975726;28;20015;-22
2023/10/23 03:27:27;;;;;;;0.52;0.52;;;;;;;;;;4975602;28;20109;-21
2023/10/23 03:29:53;;;;;;;0.60;0.60;;;;;;;;;;4975368;28;20537;-22
2023/10/23 03:32:20;;;;;;;0.50;0.50;;;;;;;;;;4975461;28;20038;-23
2023/10/23 03:34:46;;;;;;;0.50;0.50;;;;;;;;;;4975560;28;20126;-24
2023/10/23 03:37:12;;;;;;;0.40;0.40;;;;;;;;;;4975261;28;20113;-22
2023/10/23 03:39:38;;;;;;;0.60;0.60;;;;;;;;;;4975401;28;20110;-25
2023/10/23 03:42:05;;;;;;;0.60;0.60;;;;;;;;;;4975369;28;20019;-22
2023/10/23 03:44:31;;;;;;;0.60;0.60;;;;;;;;;;4975120;28;20477;-23
2023/10/23 03:46:57;;;;;;;0.50;0.50;;;;;;;;;;4975098;28;20031;-24
2023/10/23 03:49:24;;;;;;;0.60;0.60;;;;;;;;;;4975593;28;20381;-23
2023/10/23 03:51:50;;;;;;;0.80;0.80;;;;;;;;;;4974849;28;20458;-22
2023/10/23 03:54:16;;;;;;;0.50;0.50;;;;;;;;;;4975204;28;20043;-23
2023/10/23 03:56:42;;;;;;;0.50;0.50;;;;;;;;;;4975167;28;20132;-22
2023/10/23 03:59:08;;;;;;;0.73;0.60;;;;;;;;;;4974470;28;20062;-23
2023/10/23 04:01:34;;;;;;;0.60;0.60;;;;;;;;;;4974800;28;20446;-22
2023/10/23 04:04:00;;;;;;;0.47;0.47;;;;;;;;;;4974826;28;20039;-23
2023/10/23 04:06:26;;;;;;;0.55;0.55;;;;;;;;;;4974852;28;20026;-23
2023/10/23 04:08:53;;;;;;;0.57;0.57;;;;;;;;;;4974485;28;20049;-22
2023/10/23 04:11:19;;;;;;;0.50;0.50;;;;;;;;;;4974697;28;20420;-23
2023/10/23 04:13:45;;;;;;;0.50;0.50;;;;;;;;;;4974435;28;20035;-23
2023/10/23 04:16:12;;;;;;;0.70;0.70;;;;;;;;;;4974653;28;20331;-23
2023/10/23 04:18:38;;;;;;;0.75;0.63;;;;;;;;;;4974405;28;20058;-22
2023/10/23 04:21:11;;;;;;;0.60;0.57;;;;;;;;;;4974447;28;20050;-23
2023/10/23 04:23:38;;;;;;;0.75;0.57;;;;;;;;;;4974381;28;20038;-22
2023/10/23 04:26:05;;;;;;;0.52;0.52;;;;;;;;;;4974413;28;20031;-23
2023/10/23 04:28:31;;;;;;;0.50;0.50;;;;;;;;;;4974343;28;20027;-23
2023/10/23 04:30:58;;;;;;;0.60;0.60;;;;;;;;;;4974255;28;20160;-22
2023/10/23 04:33:25;;;;;;;0.60;0.60;;;;;;;;;;4974649;28;20362;-23
2023/10/23 04:35:54;;;;;;;0.82;0.80;;;;;;;;;;4974549;28;20457;-26
2023/10/23 04:38:21;;;;;;;0.50;0.47;;;;;;;;;;4974439;28;20026;-23
2023/10/23 04:40:48;;;;;;;0.60;0.60;;;;;;;;;;4974161;28;20076;-22
2023/10/23 04:43:14;;;;;;;0.95;0.50;;;;;;;;;;4974296;28;20019;-22
2023/10/23 04:45:40;;;;;;;0.43;0.43;;;;;;;;;;4974040;28;20015;-22
2023/10/23 04:48:07;;;;;;;0.40;0.40;;;;;;;;;;4974202;28;20027;-23
2023/10/23 04:50:33;;;;;;;0.52;0.52;;;;;;;;;;4974261;28;20023;-22
2023/10/23 04:53:00;;;;;;;0.60;0.60;;;;;;;;;;4973928;28;20340;-22
2023/10/23 04:55:26;;;;;;;0.70;0.63;;;;;;;;;;4974128;28;20033;-23
2023/10/23 04:57:52;;;;;;;5.10;0.50;;;;;;;;;;4973546;28;20053;-22
2023/10/23 05:00:19;;;;;;;0.60;0.60;;;;;;;;;;4973640;28;20038;-23
2023/10/23 05:02:48;;;;;;;1.25;0.90;;;;;;;;;;4972824;28;20534;-22
2023/10/23 05:05:14;;;;;;;2.38;0.45;;;;;;;;;;4973768;28;20034;-23
2023/10/23 05:07:40;;;;;;;0.55;0.50;;;;;;;;;;4973829;28;20027;-22
2023/10/23 05:10:07;;;;;;;4.07;0.77;;;;;;;;;;4974147;28;20034;-23
2023/10/23 05:12:33;;;;;;;4.32;0.40;;;;;;;;;;4973594;28;20366;-22
2023/10/23 05:15:01;;;;;;;2.30;0.50;;;;;;;;;;4973575;28;20023;-25
2023/10/23 05:17:27;;;;;;;1.38;0.60;;;;;;;;;;4973886;28;20042;-23
2023/10/23 05:19:53;;;;;;;1.52;0.40;;;;;;;;;;4972939;28;20030;-22
2023/10/23 05:22:19;;;;;;;2.72;0.60;;;;;;;;;;4973922;28;20437;-23
2023/10/23 05:24:46;;;;;;;0.85;0.70;;;;;;;;;;4974042;28;20039;-22
2023/10/23 05:27:13;;;;;;;0.45;0.45;;;;;;;;;;4973408;28;20034;-22
2023/10/23 05:29:39;;;;;;;0.68;0.68;;;;;;;;;;4973548;28;20497;-22
2023/10/23 05:32:06;;;;;;;4.75;0.90;;;;;;;;;;4973277;28;20039;-22
2023/10/23 05:34:32;;;;;;;7.32;0.60;;;;;;;;;;4972286;28;20062;-22
2023/10/23 05:36:58;;;;;;;1.20;0.80;;;;;;;;;;4973614;28;20102;-22
2023/10/23 05:39:24;;;;;;;0.47;0.40;;;;;;;;;;4973057;28;20027;-22
2023/10/23 05:41:50;;;;;;;0.50;0.50;;;;;;;;;;4973289;28;20508;-25
2023/10/23 05:44:16;;;;;;;2.58;0.55;;;;;;;;;;4973187;28;20031;-22
2023/10/23 05:46:42;;;;;;;4.43;0.65;;;;;;;;;;4972137;28;20037;-23
2023/10/23 05:49:08;;;;;;;5.70;0.77;;;;;;;;;;4972996;28;20027;-23
2023/10/23 05:51:35;;;;;;;3.05;0.70;;;;;;;;;;4973087;28;20022;-22
2023/10/23 05:54:02;;;;;;;2.53;0.65;;;;;;;;;;4973007;28;20088;-22
2023/10/23 05:56:29;;;;;;;2.40;0.63;;;;;;;;;;4973488;28;20027;-22
2023/10/23 05:58:55;;;;;;;0.55;0.30;;;;;;;;;;4971643;28;20138;-23
2023/10/23 06:03:57;;;;;;;2.05;0.77;;;;;;;;;;5086448;22;20062;-29
2023/10/23 06:06:23;;;;;;;1.08;0.77;;;;;;;;;;5015151;28;20029;-32
2023/10/23 06:08:49;;;;;;;3.78;0.82;;;;;;;;;;5014884;28;20050;-29
2023/10/23 06:11:15;;;;;;;2.03;1.35;;;;;;;;;;5015021;28;20030;-30
2023/10/23 06:13:42;;;;;;;3.42;1.33;;;;;;;;;;5014635;28;20119;-29
2023/10/23 06:16:08;;;;;;;0.68;0.57;;;;;;;;;;5014990;28;20417;-29
2023/10/23 06:18:38;;;;;;;1.10;0.45;;;;;;;;;;5013685;28;20030;-29
2023/10/23 06:21:05;;;;;;;2.03;0.50;;;;;;;;;;5013734;28;20036;-29
2023/10/23 06:23:36;;;;;;;1.35;0.68;;;;;;;;;;5013728;28;20460;-31
2023/10/23 06:26:03;;;;;;;2.67;0.63;;;;;;;;;;5014646;28;20048;-31
2023/10/23 06:28:37;;;;;;;1.17;0.60;;;;;;;;;;5014286;28;20022;-33
2023/10/23 06:31:07;;;;;;;0.75;0.60;;;;;;;;;;5015673;28;20026;-30
2023/10/23 06:33:34;;;;;;;3.53;1.40;;;;;;;;;;5018881;28;20022;-28
2023/10/23 06:36:01;;;;;;;2.63;0.50;;;;;;;;;;5018856;28;20053;-28
2023/10/23 06:38:27;;;;;;;1.55;0.70;;;;;;;;;;5018753;28;20026;-30
2023/10/23 06:40:53;;;;;;;0.68;0.60;;;;;;;;;;5018724;28;20065;-31
2023/10/23 06:43:19;;;;;;;3.58;1.23;;;;;;;;;;5018687;28;20025;-31
2023/10/23 06:45:45;;;;;;;3.38;0.70;;;;;;;;;;5018357;28;20026;-29
2023/10/23 06:48:11;;;;;;;1.40;0.80;;;;;;;;;;5018770;28;20033;-30
2023/10/23 06:50:38;;;;;;;0.80;0.52;;;;;;;;;;5018421;28;20026;-29
2023/10/23 06:53:04;;;;;;;2.13;0.80;;;;;;;;;;5018063;28;20091;-31
2023/10/23 06:55:30;;;;;;;6.47;0.70;;;;;;;;;;5018314;28;20084;-30
2023/10/23 06:57:56;;;;;;;4.03;0.50;;;;;;;;;;5018482;28;20030;-30
2023/10/23 07:00:22;;;;;;;0.88;0.40;;;;;;;;;;5017939;28;20040;-31
2023/10/23 07:02:49;;;;;;;4.80;0.80;;;;;;;;;;5017699;28;20041;-30
2023/10/23 07:05:15;;;;;;;2.50;0.80;;;;;;;;;;5018229;28;20103;-31
2023/10/23 07:07:41;;;;;;;5.72;0.75;;;;;;;;;;5017869;28;20022;-30
2023/10/23 07:10:08;;;;;;;0.98;0.52;;;;;;;;;;5017839;28;20349;-28
2023/10/23 07:12:34;;;;;;;7.18;0.70;;;;;;;;;;5017682;28;20022;-32
2023/10/23 07:15:01;;;;;;;5.80;0.68;;;;;;;;;;5017712;28;20056;-27
2023/10/23 07:17:30;;;;;;;0.95;0.68;;;;;;;;;;5017616;28;20065;-31
2023/10/23 07:19:56;;;;;;;2.97;0.73;;;;;;;;;;5017580;28;20109;-29
2023/10/23 07:22:22;;;;;;;0.82;0.50;;;;;;;;;;5017656;28;20091;-31
2023/10/23 07:24:48;;;;;;;4.28;0.82;;;;;;;;;;5017927;28;20060;-29
2023/10/23 07:27:15;;;;;;;3.58;0.80;;;;;;;;;;5017570;28;20093;-31
2023/10/23 07:29:41;;;;;;;5.20;1.00;;;;;;;;;;5016510;28;20100;-31
2023/10/23 07:32:07;;;;;;;1.10;1.10;;;;;;;;;;5017363;28;20038;-31
2023/10/23 07:34:34;;;;;;;2.35;0.82;;;;;;;;;;5017299;28;20029;-31
2023/10/23 07:37:00;;;;;;;0.88;0.60;;;;;;;;;;5017723;28;20057;-28
2023/10/23 07:39:26;;;;;;;2.88;1.00;;;;;;;;;;5017551;28;20420;-29
2023/10/23 07:41:52;;;;;;;3.50;0.85;;;;;;;;;;5017297;28;20132;-31
2023/10/23 07:44:20;;;;;;;2.92;0.50;;;;;;;;;;5016151;28;20093;-28
2023/10/23 07:46:46;;;;;;;2.28;0.68;;;;;;;;;;5017072;28;20025;-29
2023/10/23 07:49:13;;;;;;;1.10;0.60;;;;;;;;;;5017726;28;20057;-28
2023/10/23 07:51:39;;;;;;;1.38;0.73;;;;;;;;;;5017398;28;20341;-30
2023/10/23 07:54:05;;;;;;;5.05;0.65;;;;;;;;;;5017293;28;20026;-29
2023/10/23 07:56:31;;;;;;;4.95;0.85;;;;;;;;;;5017039;28;20029;-30
2023/10/23 07:58:58;;;;;;;2.90;0.90;;;;;;;;;;5016984;28;20457;-29
2023/10/23 08:01:25;;;;;;;4.85;1.40;;;;;;;;;;5017261;28;20513;-30
2023/10/23 08:03:51;;;;;;;5.38;1.13;;;;;;;;;;5016605;28;20108;-28
2023/10/23 08:06:17;;;;;;;1.17;0.70;;;;;;;;;;5016905;28;20468;-31
2023/10/23 08:08:44;;;;;;;2.60;0.75;;;;;;;;;;5016778;28;20037;-29
2023/10/23 08:11:12;;;;;;;2.03;0.50;;;;;;;;;;5016492;28;20026;-31
2023/10/23 08:13:39;;;;;;;4.40;0.90;;;;;;;;;;5016594;28;20440;-30
2023/10/23 08:16:05;;;;;;;6.72;1.10;;;;;;;;;;5016556;28;20123;-35
2023/10/23 08:18:34;;;;;;;2.83;0.77;;;;;;;;;;5016419;28;20421;-31
2023/10/23 08:21:01;;;;;;;6.05;0.80;;;;;;;;;;5016501;28;20029;-28
2023/10/23 08:23:27;;;;;;;5.05;0.70;;;;;;;;;;5016395;28;20052;-29
2023/10/23 08:25:53;;;;;;;4.57;1.67;;;;;;;;;;5016431;28;20025;-29
2023/10/23 08:28:19;;;;;;;1.50;0.80;;;;;;;;;;5016655;28;20083;-28
2023/10/23 08:30:45;;;;;;;1.52;0.63;;;;;;;;;;5016320;28;20105;-30
2023/10/23 08:33:11;;;;;;;0.70;0.70;;;;;;;;;;5016153;28;20113;-34
2023/10/23 08:35:38;;;;;;;4.97;0.70;;;;;;;;;;5016394;28;20349;-29
2023/10/23 08:38:04;;;;;;;0.93;0.77;;;;;;;;;;5016664;28;20025;-30
2023/10/23 08:40:31;;;;;;;2.90;0.57;;;;;;;;;;5015958;28;20030;-27
2023/10/23 08:42:57;;;;;;;8.65;0.90;;;;;;;;;;5016112;28;20445;-29
2023/10/23 08:45:23;;;;;;;9.57;1.00;;;;;;;;;;5016056;28;20041;-28
2023/10/23 08:47:49;;;;;;;0.70;0.60;;;;;;;;;;5016630;28;20044;-30
2023/10/23 08:50:15;;;;;;;6.55;0.80;;;;;;;;;;5016032;28;20046;-31
2023/10/23 08:52:46;;;;;;;2.45;0.70;;;;;;;;;;5015842;28;20512;-30
2023/10/23 08:55:16;;;;;;;5.20;1.00;;;;;;;;;;5016303;28;20030;-32
2023/10/23 08:57:43;;;;;;;1.20;1.10;;;;;;;;;;5016072;28;20362;-31
2023/10/23 09:00:10;;;;;;;2.53;0.70;;;;;;;;;;5015662;28;20030;-28
2023/10/23 09:02:36;;;;;;;6.00;0.90;;;;;;;;;;5015642;28;20376;-31
2023/10/23 09:05:03;;;;;;;3.50;1.35;;;;;;;;;;5015942;28;20342;-26
2023/10/23 09:07:29;;;;;;;3.60;0.70;;;;;;;;;;5015572;28;20029;-27
2023/10/23 09:10:00;;;;;;;2.97;0.95;;;;;;;;;;5015861;28;20110;-28
2023/10/23 09:12:34;;;;;;;2.60;1.15;;;;;;;;;;5015511;28;20038;-31
2023/10/23 09:15:13;;;;;;;4.97;1.20;;;;;;;;;;5015550;28;20041;-30
2023/10/23 09:17:40;;;;;;;3.92;1.08;;;;;;;;;;5015498;28;20484;-29
2023/10/23 09:20:27;;;;;;;3.65;0.70;;;;;;;;;;5015323;28;20026;-31
2023/10/23 09:22:54;;;;;;;2.30;0.68;;;;;;;;;;5015485;28;20045;-32
2023/10/23 09:25:21;;;;;;;1.38;0.50;;;;;;;;;;5015344;28;20030;-30
2023/10/23 09:27:48;;;;;;;2.20;1.10;;;;;;;;;;5015493;28;20075;-31
2023/10/23 09:30:20;;;;;;;2.17;0.73;;;;;;;;;;5015307;28;20022;-32
2023/10/23 09:32:49;;;;;;;3.20;0.93;;;;;;;;;;5015121;28;20038;-30
2023/10/23 09:35:15;;;;;;;15.95;1.55;;;;;;;;;;5015719;28;20025;-27
2023/10/23 09:37:41;;;;;;;8.60;0.80;;;;;;;;;;5015128;28;20021;-32
2023/10/23 09:40:08;;;;;;;0.85;0.70;;;;;;;;;;5015288;28;20036;-29
2023/10/23 09:42:35;;;;;;;7.32;1.13;;;;;;;;;;5015157;28;20021;-32
2023/10/23 09:45:02;;;;;;;1.90;0.73;;;;;;;;;;5015351;28;20018;-28
2023/10/23 09:47:29;;;;;;;6.32;2.20;;;;;;;;;;5015092;28;20026;-31
2023/10/23 09:49:56;;;;;;;6.38;1.27;;;;;;;;;;5015029;28;20026;-31
2023/10/23 09:52:24;;;;;;;4.57;0.75;;;;;;;;;;5014051;28;20021;-29
2023/10/23 09:54:51;;;;;;;6.07;0.85;;;;;;;;;;5014858;28;20025;-28
2023/10/23 09:57:18;;;;;;;2.53;0.90;;;;;;;;;;5015138;28;20033;-31
2023/10/23 09:59:47;;;;;;;7.60;2.03;;;;;;;;;;5014932;28;20034;-31
2023/10/23 10:02:15;;;;;;;4.43;1.05;;;;;;;;;;5013528;28;20084;-28
2023/10/23 10:04:47;;;;;;;0.82;0.77;;;;;;;;;;5015120;28;20029;-30
2023/10/23 10:07:21;;;;;;;2.28;0.60;;;;;;;;;;5014322;28;20033;-29
2023/10/23 10:09:47;;;;;;;4.07;0.88;;;;;;;;;;5014063;28;20411;-31
2023/10/23 10:12:13;;;;;;;3.10;1.40;;;;;;;;;;5014644;28;20034;-28
2023/10/23 10:14:41;;;;;;;5.22;1.30;;;;;;;;;;5014662;28;20030;-30
2023/10/23 10:17:07;;;;;;;6.40;0.93;;;;;;;;;;5014669;28;20030;-29
2023/10/23 10:19:33;;;;;;;3.60;1.02;;;;;;;;;;5014661;28;20056;-32
2023/10/23 10:22:05;;;;;;;5.68;0.85;;;;;;;;;;5014449;28;20026;-31
2023/10/23 10:24:34;;;;;;;3.97;0.70;;;;;;;;;;5015072;28;20018;-29
2023/10/23 10:27:01;;;;;;;3.95;2.60;;;;;;;;;;5015144;28;20187;-29
2023/10/23 10:29:27;;;;;;;2.45;0.93;;;;;;;;;;5015040;28;20026;-30
2023/10/23 10:32:04;;;;;;;2.63;0.70;;;;;;;;;;5014336;28;20106;-27
2023/10/23 10:34:31;;;;;;;3.35;0.88;;;;;;;;;;5014632;28;20049;-30
2023/10/23 10:36:58;;;;;;;5.55;0.93;;;;;;;;;;5014382;28;20029;-30
2023/10/23 10:39:44;;;;;;;1.25;0.60;;;;;;;;;;5014283;28;20045;-33
2023/10/23 10:42:15;;;;;;;4.68;0.75;;;;;;;;;;5014685;28;20386;-31
2023/10/23 10:44:41;;;;;;;;;;;;;;;;;;5015129;28;20404;-27
2023/10/23 10:47:15;;;;;;;7.35;1.00;;;;;;;;;;5014370;28;19913;-27
2023/10/23 10:49:44;;;;;;;8.63;1.45;;;;;;;;;;5013506;28;20026;-28
2023/10/23 10:52:30;;;;;;;2.92;0.80;;;;;;;;;;5014749;28;20080;-29
2023/10/23 10:54:56;;;;;;;4.18;1.33;;;;;;;;;;5014358;28;20057;-30
2023/10/23 10:57:23;;;;;;;4.75;2.03;;;;;;;;;;5014614;28;20033;-27
2023/10/23 10:59:54;;;;;;;21.60;1.67;;;;;;;;;;5014323;28;20026;-30
2023/10/23 11:02:20;;;;;;;4.45;1.08;;;;;;;;;;5013121;28;20129;-31
2023/10/23 11:04:47;;;;;;;2.15;0.70;;;;;;;;;;5014265;28;20515;-27
2023/10/23 11:07:13;;;;;;;2.22;0.80;;;;;;;;;;5014174;28;20030;-31
2023/10/23 11:09:41;;;;;;;6.05;1.08;;;;;;;;;;5013275;28;20034;-28
2023/10/23 11:12:07;;;;;;;1.70;0.63;;;;;;;;;;5014099;28;20099;-30
2023/10/23 11:14:34;;;;;;;10.55;1.40;;;;;;;;;;5014119;28;20037;-29
2023/10/23 11:17:00;;;;;;;5.78;0.68;;;;;;;;;;5014482;28;20060;-33
2023/10/23 11:19:26;;;;;;;6.32;0.85;;;;;;;;;;5016974;28;20050;-30
2023/10/23 11:22:06;;;;;;;3.35;0.90;;;;;;;;;;5017854;28;20092;-29
2023/10/23 11:24:32;;;;;;;18.02;1.27;;;;;;;;;;5017987;28;20026;-27
2023/10/23 11:26:59;;;;;;;2.38;0.90;;;;;;;;;;5018065;28;20041;-30
2023/10/23 11:29:26;;;;;;;2.60;0.88;;;;;;;;;;5017411;28;20100;-31
2023/10/23 11:31:52;;;;;;;4.38;0.95;;;;;;;;;;5017527;28;20461;-30
2023/10/23 11:34:19;;;;;;;4.50;1.30;;;;;;;;;;5017185;28;20036;-30
2023/10/23 11:36:49;;;;;;;5.15;1.00;;;;;;;;;;5017417;28;20468;-26
2023/10/23 11:39:18;;;;;;;2.70;0.80;;;;;;;;;;5017286;28;20061;-31
2023/10/23 11:41:58;;;;;;;3.55;0.88;;;;;;;;;;5017420;28;20583;-30
2023/10/23 11:44:27;;;;;;;2.40;1.10;;;;;;;;;;5017292;28;20022;-31
2023/10/23 11:47:00;;;;;;;2.97;0.63;;;;;;;;;;5016207;28;20532;-30
2023/10/23 11:49:26;;;;;;;5.28;0.80;;;;;;;;;;5017238;28;20419;-30
2023/10/23 11:51:53;;;;;;;5.28;1.10;;;;;;;;;;5017082;28;20045;-31
2023/10/23 11:54:19;;;;;;;4.78;0.70;;;;;;;;;;5017122;28;20030;-31
2023/10/23 11:56:46;;;;;;;2.83;0.90;;;;;;;;;;5017051;28;20025;-30
2023/10/23 11:59:16;;;;;;;2.83;0.77;;;;;;;;;;5016903;28;20060;-28
2023/10/23 12:01:42;;;;;;;7.65;0.98;;;;;;;;;;5016835;28;20039;-29
2023/10/23 12:04:08;;;;;;;2.97;0.60;;;;;;;;;;5016772;28;20042;-27
2023/10/23 12:06:35;;;;;;;6.43;2.25;;;;;;;;;;5017364;28;20022;-29
2023/10/23 12:09:02;;;;;;;5.00;1.35;;;;;;;;;;5016725;28;20034;-29
2023/10/23 12:11:32;;;;;;;5.00;1.08;;;;;;;;;;5016947;28;20030;-30
2023/10/23 12:14:01;;;;;;;3.63;0.82;;;;;;;;;;5016883;28;20029;-30
2023/10/23 12:16:28;;;;;;;1.85;1.15;;;;;;;;;;5017063;28;20030;-27
2023/10/23 12:18:54;;;;;;;6.63;1.13;;;;;;;;;;5016857;28;20018;-29
2023/10/23 12:21:20;;;;;;;5.72;1.02;;;;;;;;;;5016564;28;20030;-32
2023/10/23 12:23:46;;;;;;;3.72;0.70;;;;;;;;;;5016475;28;20460;-29
2023/10/23 12:26:13;;;;;;;1.17;0.50;;;;;;;;;;5015634;28;20133;-28
2023/10/23 12:28:39;;;;;;;2.42;0.70;;;;;;;;;;5016656;28;20026;-31
2023/10/23 12:31:06;;;;;;;5.90;1.20;;;;;;;;;;5016414;28;20032;-29
2023/10/23 12:33:32;;;;;;;2.58;0.75;;;;;;;;;;5015493;28;20092;-32
2023/10/23 12:36:00;;;;;;;4.68;0.73;;;;;;;;;;5016600;28;20026;-33
2023/10/23 12:38:28;;;;;;;5.05;0.88;;;;;;;;;;5015557;28;20457;-28
2023/10/23 12:40:54;;;;;;;8.35;0.85;;;;;;;;;;5016379;28;20021;-27
2023/10/23 12:43:20;;;;;;;15.55;1.77;;;;;;;;;;5016335;28;20445;-30
2023/10/23 12:45:46;;;;;;;7.53;1.55;;;;;;;;;;5016012;28;20026;-28
2023/10/23 12:48:13;;;;;;;9.30;1.05;;;;;;;;;;5016207;28;20037;-38
2023/10/23 12:50:39;;;;;;;6.18;0.70;;;;;;;;;;5014942;28;20025;-32
2023/10/23 12:53:05;;;;;;;6.88;0.82;;;;;;;;;;5016024;28;20106;-30
2023/10/23 12:55:32;;;;;;;4.57;0.98;;;;;;;;;;5016418;28;20033;-30
2023/10/23 12:57:58;;;;;;;2.67;0.70;;;;;;;;;;5015876;28;20030;-29
2023/10/23 13:00:25;;;;;;;3.30;1.98;;;;;;;;;;5015786;28;20029;-29
2023/10/23 13:02:51;;;;;;;7.20;0.98;;;;;;;;;;5015651;28;20125;-31
2023/10/23 13:05:17;;;;;;;5.38;1.15;;;;;;;;;;5015951;28;20322;-31
2023/10/23 13:07:43;;;;;;;1.70;1.00;;;;;;;;;;5015767;28;20025;-30
2023/10/23 13:10:09;;;;;;;7.28;1.88;;;;;;;;;;5015920;28;20030;-30
2023/10/23 13:12:35;;;;;;;4.25;1.77;;;;;;;;;;5015128;28;20038;-32
2023/10/23 13:15:02;;;;;;;5.15;1.02;;;;;;;;;;5016205;28;20061;-28
2023/10/23 13:17:29;;;;;;;6.30;1.38;;;;;;;;;;5015900;28;20105;-32
2023/10/23 13:19:55;;;;;;;2.17;0.90;;;;;;;;;;5015755;28;20415;-30
2023/10/23 13:22:21;;;;;;;3.65;1.23;;;;;;;;;;5015765;28;20064;-32
2023/10/23 13:24:48;;;;;;;4.03;0.70;;;;;;;;;;5015803;28;20033;-30
2023/10/23 13:27:15;;;;;;;2.25;0.90;;;;;;;;;;5015515;28;20088;-31
2023/10/23 13:29:45;;;;;;;6.53;0.82;;;;;;;;;;5014530;28;20479;-29
2023/10/23 13:32:12;;;;;;;7.68;1.13;;;;;;;;;;5015774;28;20470;-31
2023/10/23 13:34:39;;;;;;;5.78;0.82;;;;;;;;;;5015457;28;20025;-30
2023/10/23 13:37:05;;;;;;;5.38;0.75;;;;;;;;;;5014379;28;20125;-30
2023/10/23 13:39:32;;;;;;;4.32;1.10;;;;;;;;;;5015202;28;20053;-27
2023/10/23 13:41:58;;;;;;;8.50;0.65;;;;;;;;;;5014766;28;20032;-30
2023/10/23 13:44:24;;;;;;;3.65;0.90;;;;;;;;;;5015164;28;20018;-29
2023/10/23 13:46:50;;;;;;;2.72;0.55;;;;;;;;;;5014166;28;20022;-30
2023/10/23 13:49:16;;;;;;;4.70;0.60;;;;;;;;;;5015353;28;20048;-31
2023/10/23 13:51:42;;;;;;;3.63;1.08;;;;;;;;;;5015151;28;20052;-31
2023/10/23 13:54:09;;;;;;;5.10;1.10;;;;;;;;;;5015005;28;20079;-32
2023/10/23 13:56:35;;;;;;;1.48;0.95;;;;;;;;;;5015699;28;20056;-30
2023/10/23 13:59:02;;;;;;;0.85;0.85;;;;;;;;;;5015537;28;20026;-33
2023/10/23 14:01:30;;;;;;;2.60;0.70;;;;;;;;;;5014918;28;20065;-30
2023/10/23 14:03:57;;;;;;;3.10;1.02;;;;;;;;;;5014676;28;20041;-30
2023/10/23 14:06:24;;;;;;;1.00;0.70;;;;;;;;;;5014781;28;20033;-28
2023/10/23 14:08:53;;;;;;;5.55;1.02;;;;;;;;;;5014724;28;20030;-32
2023/10/23 14:11:20;;;;;;;4.97;0.77;;;;;;;;;;5014771;28;20041;-32
2023/10/23 14:13:46;;;;;;;5.45;1.17;;;;;;;;;;5014680;28;20404;-31
2023/10/23 14:16:12;;;;;;;5.40;1.00;;;;;;;;;;5014916;28;20121;-31
2023/10/23 14:18:38;;;;;;;4.45;0.90;;;;;;;;;;5014666;28;20041;-31
2023/10/23 14:21:05;;;;;;;4.72;0.80;;;;;;;;;;5015256;28;20021;-27
2023/10/23 14:23:31;;;;;;;10.18;1.00;;;;;;;;;;5014545;28;20022;-29
2023/10/23 14:25:57;;;;;;;2.78;0.63;;;;;;;;;;5013745;28;20074;-30
2023/10/23 14:28:23;;;;;;;2.42;0.70;;;;;;;;;;5014647;28;20095;-27
2023/10/23 14:30:50;;;;;;;2.05;0.80;;;;;;;;;;5014864;28;20090;-29
2023/10/23 14:33:16;;;;;;;5.05;1.30;;;;;;;;;;5014486;28;20491;-32
2023/10/23 14:35:42;;;;;;;4.88;0.90;;;;;;;;;;5014842;28;20030;-29
2023/10/23 14:38:08;;;;;;;4.30;0.85;;;;;;;;;;5014869;28;20101;-31
2023/10/23 14:40:34;;;;;;;4.68;0.93;;;;;;;;;;5014747;28;20038;-32
2023/10/23 14:43:00;;;;;;;4.93;0.88;;;;;;;;;;5014425;28;20099;-33
2023/10/23 14:45:27;;;;;;;3.67;0.90;;;;;;;;;;5014794;28;20049;-30